sensor_id;sensor_type;location;lat;lon;timestamp;pressure;altitude;pressure_sealevel;temperature;humidity
68169;BME280;54981;50.206;15.978;2023-07-16T00:01:25;98197.44;;;25.57;100.00
68169;BME280;54981;50.206;15.978;2023-07-16T00:03:55;98210.81;;;25.45;100.00
68169;BME280;54981;50.206;15.978;2023-07-16T00:06:25;98214.56;;;25.44;100.00
68169;BME280;54981;50.206;15.978;2023-07-16T00:08:56;98221.31;;;25.48;100.00
68169;BME280;54981;50.206;15.978;2023-07-16T00:11:26;98220.00;;;25.44;100.00
68169;BME280;54981;50.206;15.978;2023-07-16T00:13:56;98219.59;;;25.47;100.00
68169;BME280;54981;50.206;15.978;2023-07-16T00:16:27;98227.09;;;25.38;100.00
68169;BME280;54981;50.206;15.978;2023-07-16T00:18:58;98225.22;;;25.39;100.00
68169;BME280;54981;50.206;15.978;2023-07-16T00:21:28;98220.28;;;25.27;100.00
68169;BME280;54981;50.206;15.978;2023-07-16T00:23:59;98229.91;;;25.23;100.00
68169;BME280;54981;50.206;15.978;2023-07-16T00:26:29;98225.28;;;25.24;100.00
68169;BME280;54981;50.206;15.978;2023-07-16T00:29:00;98218.72;;;25.18;100.00
68169;BME280;54981;50.206;15.978;2023-07-16T00:31:30;98220.25;;;25.21;100.00
68169;BME280;54981;50.206;15.978;2023-07-16T00:34:00;98219.94;;;25.16;100.00
68169;BME280;54981;50.206;15.978;2023-07-16T00:36:31;98216.25;;;25.02;100.00
68169;BME280;54981;50.206;15.978;2023-07-16T00:39:02;98217.50;;;24.99;100.00
68169;BME280;54981;50.206;15.978;2023-07-16T00:41:32;98214.88;;;24.91;100.00
68169;BME280;54981;50.206;15.978;2023-07-16T00:44:02;98221.16;;;24.92;100.00
68169;BME280;54981;50.206;15.978;2023-07-16T00:46:33;98228.75;;;24.96;100.00
68169;BME280;54981;50.206;15.978;2023-07-16T00:49:03;98224.69;;;24.85;100.00
68169;BME280;54981;50.206;15.978;2023-07-16T00:51:34;98223.38;;;24.81;100.00
68169;BME280;54981;50.206;15.978;2023-07-16T00:54:04;98219.88;;;24.87;100.00
68169;BME280;54981;50.206;15.978;2023-07-16T00:56:37;98225.25;;;24.81;100.00
68169;BME280;54981;50.206;15.978;2023-07-16T00:59:07;98223.50;;;24.73;100.00
68169;BME280;54981;50.206;15.978;2023-07-16T01:01:39;98233.16;;;24.76;100.00
68169;BME280;54981;50.206;15.978;2023-07-16T01:04:09;98225.34;;;24.87;100.00
68169;BME280;54981;50.206;15.978;2023-07-16T01:06:43;98223.50;;;24.73;100.00
68169;BME280;54981;50.206;15.978;2023-07-16T01:09:17;98214.59;;;24.64;100.00
68169;BME280;54981;50.206;15.978;2023-07-16T01:11:49;98212.78;;;24.72;100.00
68169;BME280;54981;50.206;15.978;2023-07-16T01:14:21;98210.50;;;24.54;100.00
68169;BME280;54981;50.206;15.978;2023-07-16T01:16:51;98206.66;;;24.48;100.00
68169;BME280;54981;50.206;15.978;2023-07-16T01:19:28;98212.31;;;24.47;100.00
68169;BME280;54981;50.206;15.978;2023-07-16T01:25:10;98219.69;;;24.53;100.00
68169;BME280;54981;50.206;15.978;2023-07-16T01:30:40;98234.09;;;24.47;100.00
68169;BME280;54981;50.206;15.978;2023-07-16T01:33:16;98236.22;;;24.36;100.00
68169;BME280;54981;50.206;15.978;2023-07-16T01:35:47;98254.50;;;24.42;100.00
68169;BME280;54981;50.206;15.978;2023-07-16T01:38:18;98271.22;;;24.39;100.00
68169;BME280;54981;50.206;15.978;2023-07-16T01:40:51;98285.69;;;24.25;100.00
68169;BME280;54981;50.206;15.978;2023-07-16T01:43:21;98287.16;;;23.98;100.00
68169;BME280;54981;50.206;15.978;2023-07-16T01:45:53;98279.91;;;23.75;100.00
68169;BME280;54981;50.206;15.978;2023-07-16T01:48:32;98268.19;;;23.75;100.00
68169;BME280;54981;50.206;15.978;2023-07-16T01:51:04;98265.81;;;23.72;100.00
68169;BME280;54981;50.206;15.978;2023-07-16T01:53:35;98271.16;;;23.65;100.00
68169;BME280;54981;50.206;15.978;2023-07-16T01:56:05;98268.69;;;23.55;100.00
68169;BME280;54981;50.206;15.978;2023-07-16T01:58:36;98264.72;;;23.43;100.00
68169;BME280;54981;50.206;15.978;2023-07-16T02:01:06;98262.44;;;23.32;100.00
68169;BME280;54981;50.206;15.978;2023-07-16T02:03:36;98261.47;;;23.25;100.00
68169;BME280;54981;50.206;15.978;2023-07-16T02:06:07;98260.63;;;23.24;100.00
68169;BME280;54981;50.206;15.978;2023-07-16T02:08:37;98255.31;;;23.31;100.00
68169;BME280;54981;50.206;15.978;2023-07-16T02:11:07;98253.25;;;23.33;100.00
68169;BME280;54981;50.206;15.978;2023-07-16T02:13:38;98263.28;;;23.32;100.00
68169;BME280;54981;50.206;15.978;2023-07-16T02:16:08;98256.88;;;23.25;100.00
68169;BME280;54981;50.206;15.978;2023-07-16T02:18:38;98255.38;;;23.23;100.00
68169;BME280;54981;50.206;15.978;2023-07-16T02:21:09;98255.63;;;23.36;100.00
68169;BME280;54981;50.206;15.978;2023-07-16T02:23:39;98255.72;;;23.43;100.00
68169;BME280;54981;50.206;15.978;2023-07-16T02:26:09;98258.38;;;23.51;100.00
68169;BME280;54981;50.206;15.978;2023-07-16T02:28:40;98263.41;;;23.39;100.00
68169;BME280;54981;50.206;15.978;2023-07-16T02:31:10;98274.19;;;23.47;100.00
68169;BME280;54981;50.206;15.978;2023-07-16T02:33:40;98275.84;;;23.33;100.00
68169;BME280;54981;50.206;15.978;2023-07-16T02:36:11;98289.69;;;23.24;100.00
68169;BME280;54981;50.206;15.978;2023-07-16T02:38:41;98293.94;;;23.18;100.00
68169;BME280;54981;50.206;15.978;2023-07-16T02:41:12;98305.88;;;23.09;100.00
68169;BME280;54981;50.206;15.978;2023-07-16T02:43:42;98314.44;;;22.97;100.00
68169;BME280;54981;50.206;15.978;2023-07-16T02:46:12;98342.13;;;22.85;100.00
68169;BME280;54981;50.206;15.978;2023-07-16T02:48:43;98368.38;;;22.61;100.00
68169;BME280;54981;50.206;15.978;2023-07-16T02:51:13;98391.28;;;22.59;100.00
68169;BME280;54981;50.206;15.978;2023-07-16T02:53:43;98401.63;;;22.55;100.00
68169;BME280;54981;50.206;15.978;2023-07-16T02:56:14;98398.13;;;22.13;100.00
68169;BME280;54981;50.206;15.978;2023-07-16T02:58:45;98387.47;;;22.04;100.00
68169;BME280;54981;50.206;15.978;2023-07-16T03:01:16;98383.88;;;22.20;100.00
68169;BME280;54981;50.206;15.978;2023-07-16T03:06:16;98407.13;;;22.30;100.00
68169;BME280;54981;50.206;15.978;2023-07-16T03:08:47;98398.16;;;22.30;100.00
68169;BME280;54981;50.206;15.978;2023-07-16T03:11:18;98389.13;;;22.38;100.00
68169;BME280;54981;50.206;15.978;2023-07-16T03:13:48;98392.66;;;22.54;100.00
68169;BME280;54981;50.206;15.978;2023-07-16T03:16:19;98405.19;;;22.55;100.00
68169;BME280;54981;50.206;15.978;2023-07-16T03:18:49;98406.69;;;22.58;100.00
68169;BME280;54981;50.206;15.978;2023-07-16T03:21:20;98415.88;;;22.57;100.00
68169;BME280;54981;50.206;15.978;2023-07-16T03:23:50;98403.31;;;22.56;100.00
68169;BME280;54981;50.206;15.978;2023-07-16T03:26:21;98405.69;;;22.59;100.00
68169;BME280;54981;50.206;15.978;2023-07-16T03:28:51;98431.84;;;22.44;100.00
68169;BME280;54981;50.206;15.978;2023-07-16T03:31:21;98450.84;;;22.36;100.00
68169;BME280;54981;50.206;15.978;2023-07-16T03:33:52;98447.09;;;21.96;100.00
68169;BME280;54981;50.206;15.978;2023-07-16T03:36:22;98436.75;;;21.91;100.00
68169;BME280;54981;50.206;15.978;2023-07-16T03:38:53;98442.00;;;22.17;100.00
68169;BME280;54981;50.206;15.978;2023-07-16T03:41:23;98470.00;;;22.42;100.00
68169;BME280;54981;50.206;15.978;2023-07-16T03:43:54;98476.25;;;22.51;100.00
68169;BME280;54981;50.206;15.978;2023-07-16T03:46:24;98459.63;;;22.46;100.00
68169;BME280;54981;50.206;15.978;2023-07-16T03:48:54;98428.25;;;22.60;100.00
68169;BME280;54981;50.206;15.978;2023-07-16T03:51:25;98472.78;;;22.82;100.00
68169;BME280;54981;50.206;15.978;2023-07-16T03:53:56;98487.38;;;22.97;100.00
68169;BME280;54981;50.206;15.978;2023-07-16T03:56:26;98466.25;;;23.15;100.00
68169;BME280;54981;50.206;15.978;2023-07-16T03:58:57;98465.06;;;23.49;100.00
68169;BME280;54981;50.206;15.978;2023-07-16T04:01:27;98509.53;;;23.56;100.00
68169;BME280;54981;50.206;15.978;2023-07-16T04:03:57;98532.28;;;23.24;100.00
68169;BME280;54981;50.206;15.978;2023-07-16T04:06:28;98499.53;;;23.17;100.00
68169;BME280;54981;50.206;15.978;2023-07-16T04:08:58;98517.44;;;23.35;100.00
68169;BME280;54981;50.206;15.978;2023-07-16T04:11:29;98532.41;;;23.70;100.00
68169;BME280;54981;50.206;15.978;2023-07-16T04:13:59;98518.72;;;23.55;100.00
68169;BME280;54981;50.206;15.978;2023-07-16T04:16:29;98511.91;;;23.28;100.00
68169;BME280;54981;50.206;15.978;2023-07-16T04:19:00;98529.63;;;23.47;100.00
68169;BME280;54981;50.206;15.978;2023-07-16T04:21:30;98512.44;;;23.55;100.00
68169;BME280;54981;50.206;15.978;2023-07-16T04:24:02;98517.47;;;23.74;100.00
68169;BME280;54981;50.206;15.978;2023-07-16T04:26:32;98531.97;;;23.90;100.00
68169;BME280;54981;50.206;15.978;2023-07-16T04:29:03;98512.88;;;23.75;100.00
68169;BME280;54981;50.206;15.978;2023-07-16T04:31:33;98507.47;;;23.58;100.00
68169;BME280;54981;50.206;15.978;2023-07-16T04:34:04;98517.94;;;23.78;100.00
68169;BME280;54981;50.206;15.978;2023-07-16T04:36:34;98515.47;;;24.14;100.00
68169;BME280;54981;50.206;15.978;2023-07-16T04:39:05;98528.34;;;24.43;100.00
68169;BME280;54981;50.206;15.978;2023-07-16T04:41:35;98527.41;;;24.74;100.00
68169;BME280;54981;50.206;15.978;2023-07-16T04:44:06;98531.47;;;25.08;100.00
68169;BME280;54981;50.206;15.978;2023-07-16T04:46:36;98531.88;;;25.20;100.00
68169;BME280;54981;50.206;15.978;2023-07-16T04:49:06;98528.97;;;25.21;100.00
68169;BME280;54981;50.206;15.978;2023-07-16T04:51:37;98535.25;;;25.37;100.00
68169;BME280;54981;50.206;15.978;2023-07-16T04:54:07;98535.50;;;25.57;100.00
68169;BME280;54981;50.206;15.978;2023-07-16T04:56:37;98542.25;;;25.90;100.00
68169;BME280;54981;50.206;15.978;2023-07-16T04:59:08;98548.63;;;26.19;100.00
68169;BME280;54981;50.206;15.978;2023-07-16T05:01:38;98550.75;;;26.39;100.00
68169;BME280;54981;50.206;15.978;2023-07-16T05:04:09;98553.31;;;26.47;100.00
68169;BME280;54981;50.206;15.978;2023-07-16T05:06:39;98560.94;;;26.51;100.00
68169;BME280;54981;50.206;15.978;2023-07-16T05:09:09;98575.94;;;26.41;100.00
68169;BME280;54981;50.206;15.978;2023-07-16T05:11:40;98580.63;;;26.25;100.00
68169;BME280;54981;50.206;15.978;2023-07-16T05:14:10;98577.94;;;26.10;100.00
68169;BME280;54981;50.206;15.978;2023-07-16T05:16:40;98594.59;;;26.16;100.00
68169;BME280;54981;50.206;15.978;2023-07-16T05:19:11;98597.56;;;26.21;100.00
68169;BME280;54981;50.206;15.978;2023-07-16T05:21:41;98605.28;;;25.96;100.00
68169;BME280;54981;50.206;15.978;2023-07-16T05:24:11;98616.28;;;26.24;100.00
68169;BME280;54981;50.206;15.978;2023-07-16T05:26:42;98621.25;;;26.35;100.00
68169;BME280;54981;50.206;15.978;2023-07-16T05:29:12;98626.69;;;26.71;100.00
68169;BME280;54981;50.206;15.978;2023-07-16T05:31:43;98626.41;;;26.88;100.00
68169;BME280;54981;50.206;15.978;2023-07-16T05:34:14;98637.34;;;27.37;100.00
68169;BME280;54981;50.206;15.978;2023-07-16T05:36:44;98633.66;;;27.87;100.00
68169;BME280;54981;50.206;15.978;2023-07-16T05:39:15;98628.94;;;27.39;100.00
68169;BME280;54981;50.206;15.978;2023-07-16T05:41:45;98638.47;;;27.85;100.00
68169;BME280;54981;50.206;15.978;2023-07-16T05:44:16;98645.25;;;27.60;100.00
68169;BME280;54981;50.206;15.978;2023-07-16T05:46:46;98653.66;;;27.24;100.00
68169;BME280;54981;50.206;15.978;2023-07-16T05:49:17;98664.22;;;26.63;100.00
68169;BME280;54981;50.206;15.978;2023-07-16T05:51:47;98667.16;;;26.10;100.00
68169;BME280;54981;50.206;15.978;2023-07-16T05:54:18;98680.78;;;25.95;100.00
68169;BME280;54981;50.206;15.978;2023-07-16T05:56:49;98686.72;;;25.69;100.00
68169;BME280;54981;50.206;15.978;2023-07-16T05:59:19;98698.16;;;25.49;100.00
68169;BME280;54981;50.206;15.978;2023-07-16T06:01:49;98710.00;;;25.42;100.00
68169;BME280;54981;50.206;15.978;2023-07-16T06:04:20;98726.19;;;25.20;100.00
68169;BME280;54981;50.206;15.978;2023-07-16T06:06:50;98732.16;;;25.24;100.00
68169;BME280;54981;50.206;15.978;2023-07-16T06:09:20;98735.50;;;25.03;100.00
68169;BME280;54981;50.206;15.978;2023-07-16T06:11:51;98728.72;;;24.99;100.00
68169;BME280;54981;50.206;15.978;2023-07-16T06:14:21;98731.78;;;25.04;100.00
68169;BME280;54981;50.206;15.978;2023-07-16T06:16:51;98741.78;;;25.03;100.00
68169;BME280;54981;50.206;15.978;2023-07-16T06:19:22;98743.13;;;25.07;100.00
68169;BME280;54981;50.206;15.978;2023-07-16T06:21:53;98740.59;;;25.06;100.00
68169;BME280;54981;50.206;15.978;2023-07-16T06:24:23;98730.63;;;25.21;100.00
68169;BME280;54981;50.206;15.978;2023-07-16T06:26:54;98733.28;;;25.29;100.00
68169;BME280;54981;50.206;15.978;2023-07-16T06:29:24;98721.13;;;25.17;100.00
68169;BME280;54981;50.206;15.978;2023-07-16T06:31:58;98728.88;;;25.28;100.00
68169;BME280;54981;50.206;15.978;2023-07-16T06:34:28;98717.88;;;25.37;100.00
68169;BME280;54981;50.206;15.978;2023-07-16T06:36:59;98721.72;;;25.27;100.00
68169;BME280;54981;50.206;15.978;2023-07-16T06:39:30;98718.72;;;25.37;100.00
68169;BME280;54981;50.206;15.978;2023-07-16T06:42:01;98720.84;;;25.50;100.00
68169;BME280;54981;50.206;15.978;2023-07-16T06:44:31;98720.84;;;25.50;100.00
68169;BME280;54981;50.206;15.978;2023-07-16T06:47:02;98726.28;;;25.50;100.00
68169;BME280;54981;50.206;15.978;2023-07-16T06:49:32;98734.25;;;25.51;100.00
68169;BME280;54981;50.206;15.978;2023-07-16T06:52:03;98741.47;;;25.44;100.00
68169;BME280;54981;50.206;15.978;2023-07-16T06:54:33;98738.47;;;25.39;100.00
68169;BME280;54981;50.206;15.978;2023-07-16T06:57:04;98730.66;;;25.36;100.00
68169;BME280;54981;50.206;15.978;2023-07-16T06:59:34;98738.94;;;25.28;100.00
68169;BME280;54981;50.206;15.978;2023-07-16T07:02:05;98732.97;;;25.24;100.00
68169;BME280;54981;50.206;15.978;2023-07-16T07:04:36;98729.78;;;25.21;100.00
68169;BME280;54981;50.206;15.978;2023-07-16T07:07:06;98727.44;;;25.33;100.00
68169;BME280;54981;50.206;15.978;2023-07-16T07:09:37;98740.72;;;25.36;100.00
68169;BME280;54981;50.206;15.978;2023-07-16T07:12:07;98730.94;;;25.26;100.00
68169;BME280;54981;50.206;15.978;2023-07-16T07:14:38;98732.84;;;25.41;100.00
68169;BME280;54981;50.206;15.978;2023-07-16T07:17:08;98733.16;;;25.61;100.00
68169;BME280;54981;50.206;15.978;2023-07-16T07:19:39;98732.50;;;25.73;100.00
68169;BME280;54981;50.206;15.978;2023-07-16T07:22:09;98728.13;;;25.87;100.00
68169;BME280;54981;50.206;15.978;2023-07-16T07:24:40;98709.94;;;26.09;100.00
68169;BME280;54981;50.206;15.978;2023-07-16T07:27:10;98688.13;;;26.24;100.00
68169;BME280;54981;50.206;15.978;2023-07-16T07:29:40;98676.06;;;26.19;100.00
68169;BME280;54981;50.206;15.978;2023-07-16T07:32:11;98698.94;;;26.18;100.00
68169;BME280;54981;50.206;15.978;2023-07-16T07:34:41;98712.66;;;25.80;100.00
68169;BME280;54981;50.206;15.978;2023-07-16T07:37:11;98709.38;;;25.55;100.00
68169;BME280;54981;50.206;15.978;2023-07-16T07:39:42;98693.63;;;25.42;100.00
68169;BME280;54981;50.206;15.978;2023-07-16T07:42:12;98692.88;;;25.33;100.00
68169;BME280;54981;50.206;15.978;2023-07-16T07:44:42;98676.13;;;25.21;100.00
68169;BME280;54981;50.206;15.978;2023-07-16T07:47:13;98661.69;;;25.36;100.00
68169;BME280;54981;50.206;15.978;2023-07-16T07:49:43;98666.03;;;25.45;100.00
68169;BME280;54981;50.206;15.978;2023-07-16T07:52:14;98656.13;;;25.59;100.00
68169;BME280;54981;50.206;15.978;2023-07-16T07:54:44;98637.53;;;25.47;100.00
68169;BME280;54981;50.206;15.978;2023-07-16T07:57:14;98627.84;;;25.60;100.00
68169;BME280;54981;50.206;15.978;2023-07-16T07:59:45;98602.19;;;25.69;100.00
68169;BME280;54981;50.206;15.978;2023-07-16T08:02:15;98605.47;;;25.79;100.00
68169;BME280;54981;50.206;15.978;2023-07-16T08:04:45;98597.41;;;25.86;100.00
68169;BME280;54981;50.206;15.978;2023-07-16T08:07:16;98597.41;;;25.86;100.00
68169;BME280;54981;50.206;15.978;2023-07-16T08:09:46;98606.41;;;25.71;100.00
68169;BME280;54981;50.206;15.978;2023-07-16T08:12:17;98595.19;;;25.81;100.00
68169;BME280;54981;50.206;15.978;2023-07-16T08:14:47;98628.38;;;25.85;100.00
68169;BME280;54981;50.206;15.978;2023-07-16T08:17:18;98639.69;;;25.82;100.00
68169;BME280;54981;50.206;15.978;2023-07-16T08:19:48;98642.91;;;26.00;100.00
68169;BME280;54981;50.206;15.978;2023-07-16T08:22:19;98663.13;;;25.91;100.00
68169;BME280;54981;50.206;15.978;2023-07-16T08:24:51;98677.63;;;25.91;100.00
68169;BME280;54981;50.206;15.978;2023-07-16T08:27:21;98680.97;;;26.08;100.00
68169;BME280;54981;50.206;15.978;2023-07-16T08:29:51;98687.75;;;26.12;100.00
68169;BME280;54981;50.206;15.978;2023-07-16T08:32:22;98684.56;;;26.09;100.00
68169;BME280;54981;50.206;15.978;2023-07-16T08:34:53;98692.28;;;26.05;100.00
68169;BME280;54981;50.206;15.978;2023-07-16T08:37:23;98711.00;;;25.79;100.00
68169;BME280;54981;50.206;15.978;2023-07-16T08:39:54;98729.13;;;25.71;100.00
68169;BME280;54981;50.206;15.978;2023-07-16T08:42:24;98743.00;;;25.47;100.00
68169;BME280;54981;50.206;15.978;2023-07-16T08:44:55;98751.16;;;25.09;100.00
68169;BME280;54981;50.206;15.978;2023-07-16T08:47:26;98751.97;;;24.86;100.00
68169;BME280;54981;50.206;15.978;2023-07-16T08:49:56;98758.09;;;24.88;100.00
68169;BME280;54981;50.206;15.978;2023-07-16T08:52:27;98770.97;;;24.72;100.00
68169;BME280;54981;50.206;15.978;2023-07-16T08:54:58;98777.00;;;24.59;100.00
68169;BME280;54981;50.206;15.978;2023-07-16T08:57:28;98772.94;;;24.55;100.00
68169;BME280;54981;50.206;15.978;2023-07-16T09:00:00;98778.19;;;24.56;100.00
68169;BME280;54981;50.206;15.978;2023-07-16T09:02:31;98771.03;;;24.55;100.00
68169;BME280;54981;50.206;15.978;2023-07-16T09:05:01;98785.09;;;24.67;100.00
68169;BME280;54981;50.206;15.978;2023-07-16T09:07:32;98775.63;;;24.86;100.00
68169;BME280;54981;50.206;15.978;2023-07-16T09:10:02;98772.22;;;24.92;100.00
68169;BME280;54981;50.206;15.978;2023-07-16T09:12:33;98787.22;;;25.11;100.00
68169;BME280;54981;50.206;15.978;2023-07-16T09:15:04;98808.53;;;25.07;100.00
68169;BME280;54981;50.206;15.978;2023-07-16T09:17:34;98804.47;;;24.72;100.00
68169;BME280;54981;50.206;15.978;2023-07-16T09:20:07;98811.28;;;24.76;100.00
68169;BME280;54981;50.206;15.978;2023-07-16T09:22:38;98817.09;;;24.73;100.00
68169;BME280;54981;50.206;15.978;2023-07-16T09:25:09;98816.78;;;24.68;100.00
68169;BME280;54981;50.206;15.978;2023-07-16T09:27:39;98818.06;;;24.80;100.00
68169;BME280;54981;50.206;15.978;2023-07-16T09:30:15;98827.00;;;24.66;100.00
68169;BME280;54981;50.206;15.978;2023-07-16T09:32:45;98832.84;;;24.86;100.00
68169;BME280;54981;50.206;15.978;2023-07-16T09:35:17;98845.31;;;24.80;100.00
68169;BME280;54981;50.206;15.978;2023-07-16T09:37:47;98858.09;;;25.03;100.00
68169;BME280;54981;50.206;15.978;2023-07-16T09:40:18;98853.94;;;25.15;100.00
68169;BME280;54981;50.206;15.978;2023-07-16T09:42:49;98853.13;;;25.84;100.00
68169;BME280;54981;50.206;15.978;2023-07-16T09:45:19;98860.22;;;26.61;100.00
68169;BME280;54981;50.206;15.978;2023-07-16T09:47:50;98850.28;;;26.89;100.00
68169;BME280;54981;50.206;15.978;2023-07-16T09:50:23;98857.78;;;27.60;100.00
68169;BME280;54981;50.206;15.978;2023-07-16T09:52:55;98850.94;;;28.20;100.00
68169;BME280;54981;50.206;15.978;2023-07-16T09:55:27;98849.25;;;28.54;100.00
68169;BME280;54981;50.206;15.978;2023-07-16T09:57:59;98856.59;;;27.69;100.00
68169;BME280;54981;50.206;15.978;2023-07-16T10:00:32;98856.72;;;27.61;100.00
68169;BME280;54981;50.206;15.978;2023-07-16T10:03:07;98856.88;;;27.16;100.00
68169;BME280;54981;50.206;15.978;2023-07-16T10:05:38;98856.38;;;26.91;100.00
68169;BME280;54981;50.206;15.978;2023-07-16T10:08:16;98854.88;;;27.04;100.00
68169;BME280;54981;50.206;15.978;2023-07-16T10:10:48;98868.16;;;26.92;100.00
68169;BME280;54981;50.206;15.978;2023-07-16T10:13:22;98859.97;;;26.47;100.00
68169;BME280;54981;50.206;15.978;2023-07-16T10:15:55;98863.38;;;26.79;100.00
68169;BME280;54981;50.206;15.978;2023-07-16T10:18:28;98860.97;;;27.06;100.00
68169;BME280;54981;50.206;15.978;2023-07-16T10:21:06;98863.00;;;27.98;100.00
68169;BME280;54981;50.206;15.978;2023-07-16T10:23:39;98864.84;;;28.25;100.00
68169;BME280;54981;50.206;15.978;2023-07-16T10:26:13;98848.66;;;28.24;100.00
68169;BME280;54981;50.206;15.978;2023-07-16T10:28:44;98854.31;;;28.99;100.00
68169;BME280;54981;50.206;15.978;2023-07-16T10:31:23;98860.72;;;29.13;100.00
68169;BME280;54981;50.206;15.978;2023-07-16T10:36:37;98860.63;;;28.93;100.00
68169;BME280;54981;50.206;15.978;2023-07-16T10:39:07;98856.84;;;29.00;100.00
68169;BME280;54981;50.206;15.978;2023-07-16T10:41:38;98861.16;;;29.16;100.00
68169;BME280;54981;50.206;15.978;2023-07-16T10:44:08;98857.84;;;29.47;100.00
68169;BME280;54981;50.206;15.978;2023-07-16T10:46:42;98856.59;;;29.57;100.00
68169;BME280;54981;50.206;15.978;2023-07-16T10:49:12;98856.09;;;29.13;100.00
68169;BME280;54981;50.206;15.978;2023-07-16T10:51:42;98864.09;;;28.66;100.00
68169;BME280;54981;50.206;15.978;2023-07-16T10:54:13;98856.09;;;28.09;100.00
68169;BME280;54981;50.206;15.978;2023-07-16T10:56:44;98860.50;;;28.03;100.00
68169;BME280;54981;50.206;15.978;2023-07-16T10:59:15;98866.31;;;27.93;100.00
68169;BME280;54981;50.206;15.978;2023-07-16T11:01:45;98861.28;;;27.97;100.00
68169;BME280;54981;50.206;15.978;2023-07-16T11:04:16;98861.81;;;28.07;100.00
68169;BME280;54981;50.206;15.978;2023-07-16T11:06:46;98866.94;;;28.23;100.00
68169;BME280;54981;50.206;15.978;2023-07-16T11:09:19;98875.97;;;28.17;100.00
68169;BME280;54981;50.206;15.978;2023-07-16T11:11:50;98875.50;;;27.64;100.00
68169;BME280;54981;50.206;15.978;2023-07-16T11:14:20;98871.59;;;27.73;100.00
68169;BME280;54981;50.206;15.978;2023-07-16T11:16:51;98874.91;;;28.18;100.00
68169;BME280;54981;50.206;15.978;2023-07-16T11:19:21;98882.59;;;28.30;100.00
68169;BME280;54981;50.206;15.978;2023-07-16T11:21:52;98894.19;;;28.03;100.00
68169;BME280;54981;50.206;15.978;2023-07-16T11:24:22;98890.59;;;27.81;100.00
68169;BME280;54981;50.206;15.978;2023-07-16T11:26:56;98897.91;;;27.53;100.00
68169;BME280;54981;50.206;15.978;2023-07-16T11:29:36;98897.38;;;27.43;100.00
68169;BME280;54981;50.206;15.978;2023-07-16T11:32:06;98893.41;;;27.67;100.00
68169;BME280;54981;50.206;15.978;2023-07-16T11:34:37;98901.56;;;27.60;100.00
68169;BME280;54981;50.206;15.978;2023-07-16T11:37:11;98898.53;;;28.19;100.00
68169;BME280;54981;50.206;15.978;2023-07-16T11:39:41;98904.50;;;28.58;100.00
68169;BME280;54981;50.206;15.978;2023-07-16T11:42:12;98911.97;;;28.71;100.00
68169;BME280;54981;50.206;15.978;2023-07-16T11:44:42;98908.06;;;28.30;100.00
68169;BME280;54981;50.206;15.978;2023-07-16T11:47:12;98906.09;;;28.80;100.00
68169;BME280;54981;50.206;15.978;2023-07-16T11:49:43;98899.78;;;28.80;100.00
68169;BME280;54981;50.206;15.978;2023-07-16T11:52:13;98900.44;;;28.47;100.00
68169;BME280;54981;50.206;15.978;2023-07-16T11:54:44;98898.81;;;28.53;100.00
68169;BME280;54981;50.206;15.978;2023-07-16T11:57:14;98895.59;;;28.91;100.00
68169;BME280;54981;50.206;15.978;2023-07-16T11:59:45;98894.16;;;29.43;99.87
68169;BME280;54981;50.206;15.978;2023-07-16T12:02:16;98895.69;;;28.62;100.00
68169;BME280;54981;50.206;15.978;2023-07-16T12:04:46;98892.22;;;28.47;100.00
68169;BME280;54981;50.206;15.978;2023-07-16T12:07:31;98891.41;;;28.25;100.00
68169;BME280;54981;50.206;15.978;2023-07-16T12:10:04;98893.09;;;27.76;100.00
68169;BME280;54981;50.206;15.978;2023-07-16T12:12:35;98879.81;;;27.52;100.00
68169;BME280;54981;50.206;15.978;2023-07-16T12:15:08;98878.22;;;28.07;100.00
68169;BME280;54981;50.206;15.978;2023-07-16T12:17:39;98877.81;;;28.10;100.00
68169;BME280;54981;50.206;15.978;2023-07-16T12:20:09;98868.44;;;28.26;100.00
68169;BME280;54981;50.206;15.978;2023-07-16T12:22:40;98872.03;;;29.03;100.00
68169;BME280;54981;50.206;15.978;2023-07-16T12:25:10;98879.13;;;29.25;100.00
68169;BME280;54981;50.206;15.978;2023-07-16T12:27:41;98860.00;;;29.92;100.00
68169;BME280;54981;50.206;15.978;2023-07-16T12:30:11;98866.50;;;29.58;100.00
68169;BME280;54981;50.206;15.978;2023-07-16T12:32:41;98874.75;;;29.44;100.00
68169;BME280;54981;50.206;15.978;2023-07-16T12:35:12;98877.97;;;30.01;100.00
68169;BME280;54981;50.206;15.978;2023-07-16T12:37:42;98873.31;;;30.55;97.12
68169;BME280;54981;50.206;15.978;2023-07-16T12:40:12;98867.00;;;31.06;96.30
68169;BME280;54981;50.206;15.978;2023-07-16T12:42:43;98864.09;;;31.33;90.68
68169;BME280;54981;50.206;15.978;2023-07-16T12:45:13;98864.50;;;31.36;94.50
68169;BME280;54981;50.206;15.978;2023-07-16T12:47:43;98865.09;;;30.02;98.56
68169;BME280;54981;50.206;15.978;2023-07-16T12:50:15;98861.94;;;29.78;100.00
68169;BME280;54981;50.206;15.978;2023-07-16T12:52:46;98856.25;;;29.73;100.00
68169;BME280;54981;50.206;15.978;2023-07-16T12:55:16;98864.16;;;29.28;100.00
68169;BME280;54981;50.206;15.978;2023-07-16T12:57:46;98866.06;;;28.86;100.00
68169;BME280;54981;50.206;15.978;2023-07-16T13:00:17;98865.66;;;28.48;100.00
68169;BME280;54981;50.206;15.978;2023-07-16T13:02:47;98861.66;;;28.50;100.00
68169;BME280;54981;50.206;15.978;2023-07-16T13:05:18;98857.72;;;29.01;100.00
68169;BME280;54981;50.206;15.978;2023-07-16T13:07:48;98849.03;;;29.72;100.00
68169;BME280;54981;50.206;15.978;2023-07-16T13:10:18;98850.22;;;29.36;100.00